createdAt,value
2018-04-29T00:01:51.388Z,75.01
2018-04-29T00:04:20.618Z,74.73
2018-04-29T00:06:49.774Z,74.38
2018-04-29T00:09:18.973Z,74.85
2018-04-29T00:11:49.128Z,74.97
2018-04-29T00:14:18.313Z,74.95
2018-04-29T00:16:48.267Z,73.94
2018-04-29T00:19:17.451Z,73.79
2018-04-29T00:21:46.636Z,73.45
2018-04-29T00:24:15.825Z,74.38
2018-04-29T00:26:45.746Z,74.65
2018-04-29T00:29:14.906Z,74.00
2018-04-29T00:31:44.079Z,73.47
2018-04-29T00:34:13.223Z,73.85
2018-04-29T00:36:43.147Z,74.13
2018-04-29T00:39:13.066Z,73.78
2018-04-29T00:41:42.217Z,73.07
2018-04-29T00:44:11.460Z,72.91
2018-04-29T00:46:40.624Z,72.76
2018-04-29T00:49:10.581Z,73.31
2018-04-29T00:51:57.566Z,73.94
2018-04-29T00:54:26.700Z,73.09
2018-04-29T00:56:55.958Z,71.76
2018-04-29T00:59:25.109Z,72.49
2018-04-29T01:01:54.271Z,73.39
2018-04-29T01:04:24.258Z,72.73
2018-04-29T01:06:53.394Z,71.48
2018-04-29T01:09:22.575Z,71.29
2018-04-29T01:11:52.663Z,70.71
2018-04-29T01:14:22.326Z,71.28
2018-04-29T01:16:51.550Z,71.63
2018-04-29T01:19:20.721Z,71.94
2018-04-29T01:21:49.909Z,71.87
2018-04-29T01:24:19.825Z,71.77
2018-04-29T01:26:48.999Z,71.60
2018-04-29T01:29:18.185Z,71.73
2018-04-29T01:31:47.922Z,72.25
2018-04-29T01:34:17.284Z,72.80
2018-04-29T01:36:47.174Z,73.07
2018-04-29T01:39:16.301Z,73.94
2018-04-29T01:41:46.185Z,74.12
2018-04-29T01:44:15.354Z,73.94
2018-04-29T01:46:44.515Z,74.25
2018-04-29T01:49:14.395Z,74.39
2018-04-29T01:51:43.574Z,74.36
2018-04-29T01:54:13.401Z,74.86
2018-04-29T01:56:42.516Z,75.37
2018-04-29T01:59:11.644Z,75.46
2018-04-29T02:01:40.789Z,75.67
2018-04-29T02:04:09.901Z,75.77
2018-04-29T02:06:39.009Z,75.67
2018-04-29T02:09:08.891Z,73.63
2018-04-29T02:11:38.025Z,73.14
2018-04-29T02:14:07.918Z,73.04
2018-04-29T02:16:37.011Z,71.94
2018-04-29T02:19:06.123Z,71.70
2018-04-29T02:21:35.236Z,71.33
2018-04-29T02:24:05.234Z,72.66
2018-04-29T02:26:34.456Z,73.60
2018-04-29T02:29:03.576Z,74.10
2018-04-29T02:31:32.703Z,74.37
2018-04-29T02:34:01.839Z,75.06
2018-04-29T02:36:31.815Z,74.53
2018-04-29T02:39:01.025Z,73.55
2018-04-29T02:41:30.950Z,72.42
2018-04-29T02:44:00.058Z,73.09
2018-04-29T02:46:29.925Z,73.67
2018-04-29T02:48:59.044Z,74.04
2018-04-29T02:51:28.147Z,74.77
2018-04-29T02:53:57.243Z,73.56
2018-04-29T02:56:26.358Z,72.62
2018-04-29T02:58:56.685Z,72.08
2018-04-29T03:01:26.574Z,71.97
2018-04-29T03:03:55.687Z,72.16
2018-04-29T03:06:25.582Z,72.82
2018-04-29T03:08:54.674Z,73.54
2018-04-29T03:11:23.800Z,73.86
2018-04-29T03:13:53.818Z,74.80
2018-04-29T03:16:22.960Z,75.28
2018-04-29T03:18:52.853Z,75.68
2018-04-29T03:21:22.519Z,75.11
2018-04-29T03:23:51.624Z,74.06
2018-04-29T03:26:20.730Z,73.71
2018-04-29T03:28:50.618Z,73.98
2018-04-29T03:31:19.738Z,73.66
2018-04-29T03:33:49.645Z,73.35
2018-04-29T03:36:18.789Z,72.62
2018-04-29T03:38:47.888Z,72.18
2018-04-29T03:41:17.017Z,71.88
2018-04-29T03:43:46.134Z,72.00
2018-04-29T03:46:15.264Z,72.09
2018-04-29T03:48:44.368Z,71.74
2018-04-29T03:51:13.504Z,71.74
2018-04-29T03:53:42.690Z,72.01
2018-04-29T03:56:11.885Z,71.87
2018-04-29T03:58:58.739Z,72.05
2018-04-29T04:01:51.288Z,72.05
2018-04-29T04:04:14.793Z,71.64
2018-04-29T04:06:43.921Z,71.38
2018-04-29T04:09:13.040Z,71.66
2018-04-29T04:11:43.069Z,72.32
2018-04-29T04:14:12.371Z,73.01
2018-04-29T04:16:42.260Z,73.52
2018-04-29T04:19:11.351Z,73.42
2018-04-29T04:21:41.154Z,73.11
2018-04-29T04:24:11.064Z,72.38
2018-04-29T04:26:40.180Z,71.89
2018-04-29T04:29:09.278Z,71.78
2018-04-29T04:31:38.445Z,71.61
2018-04-29T04:34:07.627Z,71.45
2018-04-29T04:36:36.698Z,72.71
2018-04-29T04:39:05.844Z,72.86
2018-04-29T04:41:34.975Z,73.60
2018-04-29T04:44:04.878Z,73.17
2018-04-29T04:46:34.230Z,72.68
2018-04-29T04:49:03.398Z,72.61
2018-04-29T04:51:33.280Z,72.19
2018-04-29T04:54:02.400Z,71.63
2018-04-29T04:56:32.330Z,71.32
2018-04-29T04:59:02.458Z,72.43
2018-04-29T05:01:31.991Z,73.24
2018-04-29T05:04:01.174Z,74.36
2018-04-29T05:06:30.288Z,74.44
2018-04-29T05:08:59.436Z,74.22
2018-04-29T05:11:29.308Z,73.31
2018-04-29T05:13:58.413Z,73.94
2018-04-29T05:16:27.549Z,74.92
2018-04-29T05:18:56.839Z,75.20
2018-04-29T05:21:26.737Z,75.25
2018-04-29T05:23:56.617Z,74.85
2018-04-29T05:26:25.716Z,74.67
2018-04-29T05:28:55.607Z,74.63
2018-04-29T05:31:24.705Z,74.59
2018-04-29T05:33:54.592Z,74.54
2018-04-29T05:36:24.455Z,74.60
2018-04-29T05:38:53.667Z,74.71
2018-04-29T05:41:23.675Z,74.89
2018-04-29T05:43:52.808Z,74.68
2018-04-29T05:46:23.631Z,74.61
2018-04-29T05:48:52.751Z,73.74
2018-04-29T05:51:22.897Z,74.02
2018-04-29T05:53:52.790Z,73.67
2018-04-29T05:56:23.710Z,73.97
2018-04-29T05:58:52.819Z,73.21
2018-04-29T06:01:23.717Z,73.06
2018-04-29T06:03:53.646Z,73.49
2018-04-29T06:06:23.756Z,73.20
2018-04-29T06:08:52.875Z,73.19
2018-04-29T06:11:23.780Z,72.89
2018-04-29T06:13:53.804Z,72.94
2018-04-29T06:16:23.769Z,72.62
2018-04-29T06:18:53.637Z,72.48
2018-04-29T06:21:22.928Z,73.09
2018-04-29T06:23:52.053Z,73.01
2018-04-29T06:26:21.945Z,73.17
2018-04-29T06:28:51.106Z,73.52
2018-04-29T06:31:20.218Z,73.99
2018-04-29T06:33:49.325Z,73.48
2018-04-29T06:36:18.422Z,73.92
2018-04-29T06:38:47.545Z,73.09
2018-04-29T06:41:16.672Z,73.34
2018-04-29T06:43:46.537Z,72.98
2018-04-29T06:46:15.664Z,73.03
2018-04-29T06:48:44.785Z,72.59
2018-04-29T06:51:13.901Z,73.29
2018-04-29T06:53:42.996Z,73.41
2018-04-29T06:56:12.381Z,73.76
2018-04-29T06:58:41.527Z,73.86
2018-04-29T07:01:10.638Z,73.29
2018-04-29T07:03:39.753Z,73.37
2018-04-29T07:06:08.896Z,73.03
2018-04-29T07:08:38.025Z,73.27
2018-04-29T07:11:07.157Z,73.23
2018-04-29T07:13:37.018Z,73.80
2018-04-29T07:16:06.169Z,73.52
2018-04-29T07:18:35.312Z,73.49
2018-04-29T07:21:04.414Z,73.00
2018-04-29T07:23:33.536Z,73.03
2018-04-29T07:26:02.733Z,73.07
2018-04-29T07:28:31.871Z,73.61
2018-04-29T07:31:00.921Z,73.72
2018-04-29T07:33:30.069Z,73.78
2018-04-29T07:35:59.215Z,73.75
2018-04-29T07:38:28.345Z,73.61
2018-04-29T07:40:57.442Z,73.45
2018-04-29T07:43:26.590Z,72.92
2018-04-29T07:45:55.701Z,73.01
2018-04-29T07:48:24.849Z,72.52
2018-04-29T07:50:53.959Z,72.63
2018-04-29T07:53:24.233Z,73.09
2018-04-29T07:55:54.745Z,73.11
2018-04-29T07:58:23.881Z,72.62
2018-04-29T08:00:53.054Z,72.66
2018-04-29T08:03:23.969Z,72.34
2018-04-29T08:05:53.207Z,72.33
2018-04-29T08:08:23.168Z,73.19
2018-04-29T08:10:52.294Z,71.75
2018-04-29T08:13:21.414Z,71.51
2018-04-29T08:15:51.303Z,72.00
2018-04-29T08:18:20.416Z,70.98
2018-04-29T08:20:50.296Z,70.12
2018-04-29T08:23:19.409Z,69.96
2018-04-29T08:25:48.547Z,69.07
2018-04-29T08:28:17.653Z,69.52
2018-04-29T08:30:47.537Z,69.54
2018-04-29T08:33:17.416Z,68.54
2018-04-29T08:35:46.558Z,68.07
2018-04-29T08:38:16.445Z,65.57
2018-04-29T08:40:45.543Z,66.49
2018-04-29T08:43:14.670Z,65.58
2018-04-29T08:45:43.796Z,64.17
2018-04-29T08:48:12.957Z,63.75
2018-04-29T08:50:42.833Z,63.43
2018-04-29T08:53:11.966Z,63.07
2018-04-29T08:55:41.846Z,63.49
2018-04-29T08:58:10.997Z,62.58
2018-04-29T09:00:40.128Z,62.04
2018-04-29T09:03:09.232Z,61.80
2018-04-29T09:05:38.400Z,61.92
2018-04-29T09:08:07.829Z,61.49
2018-04-29T09:10:36.963Z,61.61
2018-04-29T09:13:06.864Z,61.70
2018-04-29T09:15:36.765Z,61.30
2018-04-29T09:18:05.919Z,61.34
2018-04-29T09:20:35.026Z,61.12
2018-04-29T09:23:04.137Z,60.56
2018-04-29T09:25:33.234Z,59.66
2018-04-29T09:28:02.684Z,58.71
2018-04-29T09:30:31.805Z,58.50
2018-04-29T09:33:00.934Z,58.86
2018-04-29T09:35:30.741Z,57.53
2018-04-29T09:38:00.633Z,57.03
2018-04-29T09:40:29.768Z,57.07
2018-04-29T09:42:58.925Z,57.06
2018-04-29T09:45:28.052Z,56.70
2018-04-29T09:47:57.197Z,55.64
2018-04-29T09:50:27.085Z,55.36
2018-04-29T09:52:56.203Z,55.69
2018-04-29T09:55:26.159Z,55.67
2018-04-29T09:57:55.225Z,55.47
2018-04-29T10:00:26.975Z,55.88
2018-04-29T10:03:01.728Z,55.51
2018-04-29T10:05:30.850Z,55.09
2018-04-29T10:07:59.943Z,54.93
2018-04-29T10:10:29.106Z,55.42
2018-04-29T10:12:58.229Z,55.13
2018-04-29T10:15:27.362Z,55.16
2018-04-29T10:17:56.472Z,54.87
2018-04-29T10:20:26.365Z,54.64
2018-04-29T10:22:55.498Z,54.57
2018-04-29T10:25:24.616Z,54.41
2018-04-29T10:27:53.759Z,54.51
2018-04-29T10:30:23.464Z,54.29
2018-04-29T10:32:52.654Z,54.11
2018-04-29T10:35:23.682Z,53.84
2018-04-29T10:37:52.792Z,53.91
2018-04-29T10:40:21.938Z,53.16
2018-04-29T10:42:51.060Z,53.10
2018-04-29T10:45:20.199Z,52.85
2018-04-29T10:47:49.331Z,52.55
2018-04-29T10:50:18.440Z,52.49
2018-04-29T10:52:47.572Z,52.65
2018-04-29T10:55:16.681Z,52.83
2018-04-29T10:57:45.824Z,52.01
2018-04-29T11:00:14.955Z,52.27
2018-04-29T11:02:44.859Z,52.42
2018-04-29T11:05:14.013Z,52.31
2018-04-29T11:07:43.921Z,51.71
2018-04-29T11:10:13.809Z,51.67
2018-04-29T11:12:43.053Z,50.83
2018-04-29T11:15:12.153Z,51.22
2018-04-29T11:17:41.265Z,50.91
2018-04-29T11:20:10.376Z,50.90
2018-04-29T11:22:39.508Z,50.20
2018-04-29T11:25:09.381Z,50.04
2018-04-29T11:27:38.502Z,50.25
2018-04-29T11:30:07.614Z,50.00
2018-04-29T11:32:37.497Z,50.79
2018-04-29T11:35:06.647Z,50.10
2018-04-29T11:37:35.787Z,49.55
2018-04-29T11:40:04.941Z,49.80
2018-04-29T11:42:34.045Z,50.05
2018-04-29T11:45:03.193Z,49.16
2018-04-29T11:47:32.338Z,49.08
2018-04-29T11:50:01.472Z,49.19
2018-04-29T11:52:30.567Z,49.20
2018-04-29T11:54:59.709Z,48.00
2018-04-29T11:57:28.840Z,47.59
2018-04-29T11:59:58.208Z,47.38
2018-04-29T12:02:28.135Z,47.62
2018-04-29T12:04:58.014Z,47.23
2018-04-29T12:07:27.150Z,47.47
2018-04-29T12:09:56.255Z,47.56
2018-04-29T12:12:25.349Z,47.41
2018-04-29T12:14:54.536Z,47.02
2018-04-29T12:17:24.401Z,45.67
2018-04-29T12:19:53.510Z,46.13
2018-04-29T12:22:23.672Z,44.52
2018-04-29T12:24:53.547Z,43.55
2018-04-29T12:27:23.665Z,43.50
2018-04-29T12:29:52.767Z,42.80
2018-04-29T12:32:21.882Z,41.99
2018-04-29T12:34:52.374Z,41.51
2018-04-29T12:37:21.497Z,42.57
2018-04-29T12:39:51.470Z,42.40
2018-04-29T12:42:21.391Z,42.26
2018-04-29T12:44:51.307Z,42.55
2018-04-29T12:47:20.411Z,42.71
2018-04-29T12:49:49.534Z,42.66
2018-04-29T12:52:19.490Z,42.51
2018-04-29T12:54:49.082Z,41.96
2018-04-29T12:57:18.216Z,42.14
2018-04-29T12:59:47.324Z,42.51
2018-04-29T13:02:16.441Z,42.06
2018-04-29T13:04:45.566Z,42.07
2018-04-29T13:07:14.718Z,41.44
2018-04-29T13:09:43.840Z,41.25
2018-04-29T13:12:12.956Z,40.45
2018-04-29T13:14:42.861Z,40.62
2018-04-29T13:17:11.969Z,39.66
2018-04-29T13:19:41.843Z,39.83
2018-04-29T13:22:10.983Z,40.67
2018-04-29T13:24:40.134Z,40.79
2018-04-29T13:27:09.245Z,41.01
2018-04-29T13:29:38.419Z,40.45
2018-04-29T13:32:07.535Z,40.41
2018-04-29T13:34:36.677Z,40.66
2018-04-29T13:37:05.789Z,41.00
2018-04-29T13:39:34.873Z,40.57
2018-04-29T13:42:04.027Z,39.68
2018-04-29T13:44:33.115Z,38.76
2018-04-29T13:47:02.229Z,38.36
2018-04-29T13:49:32.116Z,38.15
2018-04-29T13:52:01.245Z,37.59
2018-04-29T13:54:31.112Z,37.49
2018-04-29T13:57:00.238Z,37.47
2018-04-29T13:59:29.339Z,38.11
2018-04-29T14:01:59.243Z,38.40
2018-04-29T14:04:29.124Z,38.07
2018-04-29T14:06:58.254Z,38.15
2018-04-29T14:09:27.368Z,38.29
2018-04-29T14:11:57.266Z,37.71
2018-04-29T14:14:26.394Z,37.96
2018-04-29T14:16:55.512Z,38.27
2018-04-29T14:19:24.637Z,39.29
2018-04-29T14:21:53.777Z,39.53
2018-04-29T14:24:23.835Z,39.53
2018-04-29T14:26:52.939Z,39.46
2018-04-29T14:29:22.084Z,39.46
2018-04-29T14:31:51.955Z,39.60
2018-04-29T14:34:21.063Z,39.57
2018-04-29T14:36:50.188Z,39.57
2018-04-29T14:39:20.078Z,39.59
2018-04-29T14:41:49.201Z,39.43
2018-04-29T14:44:19.095Z,39.14
2018-04-29T14:46:48.225Z,38.76
2018-04-29T14:49:17.396Z,38.75
2018-04-29T14:51:46.447Z,38.54
2018-04-29T14:54:16.355Z,38.57
2018-04-29T14:56:45.441Z,38.38
2018-04-29T14:59:14.574Z,38.35
2018-04-29T15:01:43.713Z,38.39
2018-04-29T15:04:13.617Z,38.66
2018-04-29T15:06:42.766Z,39.19
2018-04-29T15:09:11.892Z,39.58
2018-04-29T15:11:41.035Z,39.87
2018-04-29T15:14:10.158Z,39.88
2018-04-29T15:16:39.274Z,40.05
2018-04-29T15:19:08.399Z,39.82
2018-04-29T15:21:37.524Z,39.49
2018-04-29T15:24:06.676Z,39.40
2018-04-29T15:26:35.758Z,39.66
2018-04-29T15:29:04.884Z,39.80
2018-04-29T15:31:34.778Z,39.32
2018-04-29T15:34:03.896Z,39.17
2018-04-29T15:36:33.778Z,39.25
2018-04-29T15:39:02.933Z,39.11
2018-04-29T15:41:32.054Z,39.13
2018-04-29T15:44:01.176Z,38.78
2018-04-29T15:46:30.352Z,38.31
2018-04-29T15:49:00.204Z,38.32
2018-04-29T15:51:29.345Z,38.38
2018-04-29T15:53:58.461Z,38.28
2018-04-29T15:56:27.574Z,38.54
2018-04-29T15:58:56.672Z,39.07
2018-04-29T16:01:25.799Z,39.17
2018-04-29T16:03:55.687Z,39.47
2018-04-29T16:06:24.795Z,39.14
2018-04-29T16:08:55.175Z,39.13
2018-04-29T16:11:24.280Z,39.38
2018-04-29T16:13:53.423Z,39.40
2018-04-29T16:16:22.548Z,39.49
2018-04-29T16:18:51.636Z,39.73
2018-04-29T16:21:20.764Z,39.64
2018-04-29T16:23:50.713Z,39.64
2018-04-29T16:26:19.801Z,39.99
2018-04-29T16:28:48.941Z,40.05
2018-04-29T16:31:18.059Z,40.26
2018-04-29T16:33:47.192Z,40.65
2018-04-29T16:36:16.417Z,40.72
2018-04-29T16:38:45.493Z,40.50
2018-04-29T16:41:14.617Z,40.42
2018-04-29T16:43:44.498Z,39.85
2018-04-29T16:46:13.608Z,40.13
2018-04-29T16:48:43.529Z,39.68
2018-04-29T16:51:13.429Z,40.46
2018-04-29T16:53:42.554Z,41.00
2018-04-29T16:56:12.672Z,40.79
2018-04-29T16:58:41.823Z,39.62
2018-04-29T17:01:11.019Z,40.42
2018-04-29T17:03:40.860Z,40.68
2018-04-29T17:06:10.002Z,38.73
2018-04-29T17:08:39.162Z,38.07
2018-04-29T17:11:09.095Z,38.00
2018-04-29T17:13:38.974Z,37.17
2018-04-29T17:16:08.144Z,37.07
2018-04-29T17:18:38.043Z,37.33
2018-04-29T17:21:07.189Z,38.51
2018-04-29T17:23:36.305Z,39.58
2018-04-29T17:26:06.190Z,40.64
2018-04-29T17:28:35.647Z,42.47
2018-04-29T17:31:04.774Z,43.39
2018-04-29T17:33:33.906Z,43.59
2018-04-29T17:36:03.058Z,44.21
2018-04-29T17:38:32.182Z,44.54
2018-04-29T17:41:01.333Z,43.69
2018-04-29T17:43:30.475Z,42.65
2018-04-29T17:45:59.590Z,41.56
2018-04-29T17:48:28.721Z,41.52
2018-04-29T17:50:57.847Z,41.33
2018-04-29T17:53:27.010Z,41.78
2018-04-29T17:55:56.134Z,41.83
2018-04-29T17:58:25.300Z,42.01
2018-04-29T18:00:54.443Z,42.28
2018-04-29T18:03:24.402Z,43.20
2018-04-29T18:05:54.303Z,43.67
2018-04-29T18:08:24.362Z,44.71
2018-04-29T18:10:53.486Z,45.31
2018-04-29T18:13:22.616Z,45.77
2018-04-29T18:15:52.544Z,46.01
2018-04-29T18:18:22.425Z,46.25
2018-04-29T18:20:51.566Z,46.33
2018-04-29T18:23:20.679Z,45.73
2018-04-29T18:25:49.841Z,45.05
2018-04-29T18:28:20.075Z,43.15
2018-04-29T18:30:49.990Z,43.12
2018-04-29T18:33:19.911Z,43.32
2018-04-29T18:35:49.029Z,43.81
2018-04-29T18:38:18.156Z,44.21
2018-04-29T18:40:47.325Z,44.18
2018-04-29T18:43:16.452Z,43.95
2018-04-29T18:45:45.587Z,44.19
2018-04-29T18:48:14.716Z,44.25
2018-04-29T18:50:44.070Z,44.24
2018-04-29T18:53:13.886Z,43.84
2018-04-29T18:55:43.810Z,44.30
2018-04-29T18:58:15.243Z,43.86
2018-04-29T19:00:45.125Z,43.76
2018-04-29T19:03:14.265Z,43.81
2018-04-29T19:05:48.027Z,44.50
2018-04-29T19:08:17.165Z,44.32
2018-04-29T19:10:47.081Z,43.62
2018-04-29T19:13:16.214Z,43.15
2018-04-29T19:15:45.949Z,42.82
2018-04-29T19:18:15.095Z,42.65
2018-04-29T19:20:44.974Z,42.62
2018-04-29T19:23:14.125Z,42.53
2018-04-29T19:25:43.263Z,42.73
2018-04-29T19:28:12.413Z,42.86
2018-04-29T19:30:42.500Z,43.16
2018-04-29T19:33:11.612Z,43.47
2018-04-29T19:35:41.538Z,43.68
2018-04-29T19:38:10.659Z,43.97
2018-04-29T19:40:39.780Z,44.53
2018-04-29T19:43:08.954Z,44.57
2018-04-29T19:45:38.104Z,44.44
2018-04-29T19:48:07.212Z,44.69
2018-04-29T19:50:37.116Z,44.86
2018-04-29T19:53:06.989Z,44.75
2018-04-29T19:55:36.158Z,44.99
2018-04-29T19:58:05.253Z,45.04
2018-04-29T20:00:34.424Z,44.79
2018-04-29T20:03:04.322Z,44.80
2018-04-29T20:05:33.489Z,45.28
2018-04-29T20:08:02.631Z,44.89
2018-04-29T20:10:31.794Z,44.36
2018-04-29T20:13:00.978Z,44.63
2018-04-29T20:15:30.117Z,44.69
2018-04-29T20:17:59.252Z,44.98
2018-04-29T20:20:28.364Z,45.40
2018-04-29T20:22:57.542Z,45.42
2018-04-29T20:25:26.692Z,44.97
2018-04-29T20:27:55.826Z,45.00
2018-04-29T20:30:25.734Z,44.77
2018-04-29T20:32:55.632Z,44.84
2018-04-29T20:35:24.764Z,44.63
2018-04-29T20:37:54.109Z,44.10
2018-04-29T20:40:24.487Z,44.41
2018-04-29T20:42:53.637Z,44.41
2018-04-29T20:45:22.732Z,43.76
2018-04-29T20:47:51.876Z,44.07
2018-04-29T20:50:21.773Z,43.79
2018-04-29T20:52:51.660Z,43.38
2018-04-29T20:55:21.157Z,43.81
2018-04-29T20:57:50.273Z,43.41
2018-04-29T21:00:19.381Z,43.96
2018-04-29T21:02:49.279Z,43.79
2018-04-29T21:05:19.187Z,43.12
2018-04-29T21:07:48.321Z,43.70
2018-04-29T21:10:18.256Z,43.65
2018-04-29T21:12:47.381Z,43.97
2018-04-29T21:15:16.481Z,44.02
2018-04-29T21:17:46.396Z,45.11
2018-04-29T21:20:15.517Z,45.96
2018-04-29T21:22:44.625Z,46.34
2018-04-29T21:25:14.519Z,45.24
2018-04-29T21:27:43.672Z,45.54
2018-04-29T21:30:12.797Z,44.83
2018-04-29T21:32:42.707Z,44.50
2018-04-29T21:35:11.847Z,45.10
2018-04-29T21:37:40.975Z,45.72
2018-04-29T21:40:10.127Z,46.82
2018-04-29T21:42:39.232Z,47.64
2018-04-29T21:45:09.136Z,47.96
2018-04-29T21:47:38.257Z,48.62
2018-04-29T21:50:08.148Z,49.15
2018-04-29T21:52:37.241Z,49.87
2018-04-29T21:55:06.357Z,49.86
2018-04-29T21:57:36.266Z,50.34
2018-04-29T22:00:06.208Z,49.31
2018-04-29T22:02:35.315Z,48.51
2018-04-29T22:05:04.449Z,47.99
2018-04-29T22:07:33.581Z,48.01
2018-04-29T22:10:02.706Z,49.09
2018-04-29T22:12:31.829Z,49.52
2018-04-29T22:15:00.954Z,49.29
2018-04-29T22:17:30.862Z,48.67
2018-04-29T22:19:59.960Z,50.06
2018-04-29T22:22:29.835Z,51.07
2018-04-29T22:24:58.984Z,54.25
2018-04-29T22:27:28.862Z,56.96
2018-04-29T22:29:57.970Z,58.41
2018-04-29T22:32:27.321Z,59.21
2018-04-29T22:34:56.461Z,59.43
2018-04-29T22:37:25.631Z,59.90
2018-04-29T22:39:54.754Z,60.30
2018-04-29T22:42:24.842Z,60.21
2018-04-29T22:44:53.952Z,59.71
2018-04-29T22:47:23.072Z,58.94
2018-04-29T22:49:52.196Z,58.44
2018-04-29T22:52:22.077Z,57.50
2018-04-29T22:54:51.188Z,57.19
2018-04-29T22:57:20.331Z,57.53
2018-04-29T22:59:49.480Z,57.47
2018-04-29T23:02:18.596Z,58.01
2018-04-29T23:04:48.500Z,58.42
2018-04-29T23:07:17.616Z,58.56
2018-04-29T23:09:47.472Z,58.37
2018-04-29T23:12:16.593Z,58.41
2018-04-29T23:14:45.688Z,58.41
2018-04-29T23:17:14.808Z,57.96
2018-04-29T23:19:44.706Z,57.55
2018-04-29T23:22:13.812Z,57.00
2018-04-29T23:24:43.696Z,55.15
2018-04-29T23:27:12.816Z,54.82
2018-04-29T23:29:41.902Z,54.79
2018-04-29T23:32:10.997Z,54.93
2018-04-29T23:34:40.884Z,55.14
2018-04-29T23:37:09.980Z,55.58
2018-04-29T23:39:39.101Z,55.30
2018-04-29T23:42:08.207Z,55.14
2018-04-29T23:44:37.496Z,55.13
2018-04-29T23:47:06.607Z,55.42
2018-04-29T23:49:35.722Z,54.84
2018-04-29T23:52:05.606Z,54.65
2018-04-29T23:54:34.733Z,54.22
2018-04-29T23:57:04.620Z,54.20
2018-04-29T23:59:33.745Z,54.04
